Time;durP1;ratioP1;P1;durP2;ratioP2;P2;SDS_P1;SDS_P2;PMS_P1;PMS_P2;Temp;Humidity;BMP_temperature;BMP_pressure;BME280_temperature;BME280_humidity;BME280_pressure;Samples;Min_cycle;Max_cycle;Signal;HPM_P1;HPM_P2
2022/08/02 00:02:09;;;;;;;3.50;1.45;;;;;;;18.36;55.48;101916.50;4930211;28;20031;-68
2022/08/02 00:04:34;;;;;;;5.95;1.60;;;;;;;18.32;55.86;101906.03;4946146;28;20046;-67
2022/08/02 00:06:59;;;;;;;3.75;1.55;;;;;;;18.27;55.69;101912.94;4948042;28;20530;-68
2022/08/02 00:09:25;;;;;;;4.32;1.58;;;;;;;18.26;56.32;101912.06;4946526;28;20118;-68
2022/08/02 00:11:50;;;;;;;6.22;1.75;;;;;;;18.23;55.77;101912.88;4950221;28;20024;-67
2022/08/02 00:14:16;;;;;;;4.15;1.50;;;;;;;18.24;56.79;101903.34;4946393;28;20035;-67
2022/08/02 00:16:41;;;;;;;5.50;1.95;;;;;;;18.20;56.06;101901.53;4945315;28;20486;-69
2022/08/02 00:19:07;;;;;;;3.67;1.50;;;;;;;18.16;56.15;101904.97;4948349;28;20035;-68
2022/08/02 00:21:32;;;;;;;5.50;1.60;;;;;;;18.17;55.94;101907.59;4946081;28;20043;-68
2022/08/02 00:23:57;;;;;;;4.40;1.50;;;;;;;18.18;56.33;101906.72;4945864;28;20051;-68
2022/08/02 00:26:23;;;;;;;4.05;1.65;;;;;;;18.17;55.61;101907.59;4948521;28;20031;-68
2022/08/02 00:28:48;;;;;;;4.53;1.83;;;;;;;18.14;56.18;101899.75;4946917;28;20117;-68
2022/08/02 00:31:13;;;;;;;3.72;1.67;;;;;;;18.15;56.47;101911.91;4943985;28;20490;-67
2022/08/02 00:33:39;;;;;;;4.53;1.75;;;;;;;18.12;55.62;101909.25;4953389;28;20167;-67
2022/08/02 00:36:04;;;;;;;7.00;1.70;;;;;;;18.10;55.21;101908.38;4944812;28;20039;-67
2022/08/02 00:38:30;;;;;;;3.92;1.70;;;;;;;18.07;55.31;101902.22;4948759;28;20024;-69
2022/08/02 00:40:55;;;;;;;7.13;1.77;;;;;;;18.06;55.24;101903.09;4950299;28;20093;-68
2022/08/02 00:43:21;;;;;;;5.38;1.80;;;;;;;18.00;55.62;101896.06;4947338;28;20027;-69
2022/08/02 00:45:46;;;;;;;5.68;1.80;;;;;;;18.05;55.50;101901.34;4942546;28;20058;-68
2022/08/02 00:48:12;;;;;;;3.22;1.63;;;;;;;18.04;55.49;101891.81;4944581;29;20596;-68
2022/08/02 00:50:38;;;;;;;3.58;1.65;;;;;;;18.06;56.05;101898.75;4946670;28;20105;-68
2022/08/02 00:53:05;;;;;;;6.40;2.00;;;;;;;18.03;55.21;101882.25;4942739;29;20035;-68
2022/08/02 00:55:31;;;;;;;3.60;1.92;;;;;;;18.02;54.98;101881.38;4944250;28;20023;-68
2022/08/02 00:57:57;;;;;;;4.68;1.92;;;;;;;18.02;54.45;101868.38;4946537;28;20054;-68
2022/08/02 01:00:22;;;;;;;6.45;2.30;;;;;;;17.97;54.78;101876.97;4941341;28;20497;-69
2022/08/02 01:02:48;;;;;;;3.55;2.10;;;;;;;17.95;54.61;101885.59;4946730;29;20042;-68
2022/08/02 01:05:15;;;;;;;3.63;2.05;;;;;;;17.97;54.62;101882.16;4946731;28;20035;-68
2022/08/02 01:07:40;;;;;;;5.18;2.17;;;;;;;17.96;54.31;101883.91;4946644;28;20031;-68
2022/08/02 01:10:07;;;;;;;5.32;2.15;;;;;;;17.93;54.16;101881.22;4948152;29;20020;-68
2022/08/02 01:12:32;;;;;;;4.90;2.00;;;;;;;17.90;53.81;101879.47;4948691;28;20085;-68
2022/08/02 01:15:03;;;;;;;5.72;2.10;;;;;;;17.90;54.28;101881.22;4946459;28;20059;-68
2022/08/02 01:17:59;;;;;;;7.70;2.67;;;;;;;17.98;53.97;101884.78;4952021;28;20088;-68
2022/08/02 01:20:52;;;;;;;7.05;2.20;;;;;;;17.95;53.90;101890.78;4949784;28;20121;-68
2022/08/02 01:24:01;;;;;;;7.40;2.28;;;;;;;17.92;54.20;101885.56;4943674;28;20097;-69
2022/08/02 01:26:38;;;;;;;4.97;2.40;;;;;;;17.86;54.36;101885.47;4965287;28;20047;-68
2022/08/02 01:29:18;;;;;;;7.55;2.40;;;;;;;17.80;55.00;101887.13;4950496;28;20034;-68
2022/08/02 01:32:02;;;;;;;5.35;2.45;;;;;;;17.82;54.26;101885.41;4951196;28;20031;-68
2022/08/02 01:34:36;;;;;;;4.93;2.25;;;;;;;17.80;54.53;101889.72;4946827;29;20031;-68
2022/08/02 01:37:17;;;;;;;6.13;2.15;;;;;;;17.81;54.70;101879.34;4948570;28;20334;-68
2022/08/02 01:39:45;;;;;;;6.63;2.55;;;;;;;17.74;54.99;101872.28;4948771;28;20031;-68
2022/08/02 01:42:13;;;;;;;6.13;2.60;;;;;;;17.69;55.07;101873.91;4948440;28;20027;-69
2022/08/02 01:44:41;;;;;;;5.90;2.58;;;;;;;17.73;55.30;101869.69;4956499;28;20446;-66
2022/08/02 01:47:09;;;;;;;6.38;2.70;;;;;;;17.74;55.81;101872.28;4949317;28;20085;-67
2022/08/02 01:49:38;;;;;;;6.05;2.63;;;;;;;17.66;55.78;101864.34;4944990;28;20033;-67
2022/08/02 01:52:21;;;;;;;6.43;2.30;;;;;;;17.63;56.05;101866.91;4944208;28;20027;-67
2022/08/02 01:55:09;;;;;;;7.05;2.55;;;;;;;17.61;55.91;101863.41;4949083;29;20035;-66
2022/08/02 01:57:46;;;;;;;5.22;2.47;;;;;;;17.67;55.98;101860.03;5027808;28;20042;-67
2022/08/02 02:00:13;;;;;;;5.75;2.47;;;;;;;17.53;56.33;101853.72;4949442;29;20033;-67
2022/08/02 02:02:43;;;;;;;4.78;2.47;;;;;;;17.53;56.76;101861.53;4948066;29;20418;-67
2022/08/02 02:05:14;;;;;;;6.40;2.40;;;;;;;17.54;56.67;101861.56;4950301;29;20058;-67
2022/08/02 02:07:41;;;;;;;7.13;2.63;;;;;;;17.53;56.94;101858.91;4949143;29;20031;-67
2022/08/02 02:10:10;;;;;;;4.55;2.40;;;;;;;17.49;57.01;101857.16;4956842;28;20023;-67
2022/08/02 02:12:38;;;;;;;;;;;;;;;17.74;56.17;101850.63;4948461;28;20112;-67
2022/08/02 02:15:05;;;;;;;7.05;2.45;;;;;;;17.51;57.16;101848.50;4948927;28;19922;-67
2022/08/02 02:17:31;;;;;;;8.18;2.70;;;;;;;17.46;56.97;101844.06;4950901;28;20032;-66
2022/08/02 02:20:00;;;;;;;7.25;2.47;;;;;;;17.47;57.30;101838.91;4948555;29;20061;-67
2022/08/02 02:22:25;;;;;;;4.30;2.25;;;;;;;17.41;57.15;101833.59;4949595;28;20599;-68
2022/08/02 02:24:51;;;;;;;6.22;2.80;;;;;;;17.41;57.07;101821.50;4951063;28;20052;-67
2022/08/02 02:27:19;;;;;;;6.35;2.55;;;;;;;17.43;57.88;101825.00;4947700;28;21564;-67
2022/08/02 02:29:49;;;;;;;6.22;2.38;;;;;;;17.38;57.40;101820.56;4950969;28;20031;-67
2022/08/02 02:32:16;;;;;;;4.97;2.30;;;;;;;17.35;58.16;101824.00;4945292;28;20031;-67
2022/08/02 02:34:44;;;;;;;7.07;2.55;;;;;;;17.35;57.53;101815.31;4949229;28;20031;-68
2022/08/02 02:37:19;;;;;;;7.85;2.63;;;;;;;17.38;57.82;101820.56;4949094;28;20379;-68
2022/08/02 02:39:47;;;;;;;7.93;2.30;;;;;;;17.31;57.42;101813.53;4946476;28;20038;-68
2022/08/02 02:42:16;;;;;;;7.03;2.50;;;;;;;17.31;57.50;101818.72;4947984;28;20403;-67
2022/08/02 02:44:43;;;;;;;8.60;2.50;;;;;;;17.30;58.04;101824.78;4961649;28;20023;-68
2022/08/02 02:47:10;;;;;;;7.03;2.70;;;;;;;17.26;58.42;101820.38;4949262;29;20017;-67
2022/08/02 02:49:37;;;;;;;4.13;2.40;;;;;;;17.14;59.18;101824.53;4946602;28;20023;-67
2022/08/02 02:52:05;;;;;;;4.60;2.50;;;;;;;17.15;58.63;101817.59;4946104;29;20027;-67
2022/08/02 02:54:32;;;;;;;4.88;2.45;;;;;;;17.14;58.64;101808.94;4945651;28;20106;-67
2022/08/02 02:56:59;;;;;;;5.45;2.38;;;;;;;17.15;58.54;101820.19;4949276;28;20039;-67
2022/08/02 02:59:26;;;;;;;6.80;2.70;;;;;;;17.16;57.93;101816.75;4945802;29;20128;-66
2022/08/02 03:01:52;;;;;;;5.25;2.58;;;;;;;17.11;58.20;101821.03;4948464;29;20054;-66
2022/08/02 03:04:20;;;;;;;5.45;2.45;;;;;;;17.08;58.72;101814.03;4947417;28;20039;-67
2022/08/02 03:06:45;;;;;;;8.35;2.78;;;;;;;17.09;58.81;101813.19;4946273;28;20035;-67
2022/08/02 03:09:11;;;;;;;7.60;2.53;;;;;;;17.10;59.13;101806.25;4949946;28;20478;-67
2022/08/02 03:11:38;;;;;;;7.20;2.85;;;;;;;17.07;59.23;101811.41;4950142;28;20027;-67
2022/08/02 03:14:07;;;;;;;6.95;2.65;;;;;;;17.00;59.29;101813.03;4946555;28;20690;-67
2022/08/02 03:16:32;;;;;;;6.72;3.22;;;;;;;17.03;59.95;101814.81;4946767;28;20054;-67
2022/08/02 03:19:01;;;;;;;8.18;2.78;;;;;;;17.04;59.71;101819.16;4948145;28;20490;-66
2022/08/02 03:21:26;;;;;;;6.35;2.90;;;;;;;16.98;60.05;101814.72;4949432;28;20027;-67
2022/08/02 03:23:52;;;;;;;9.52;3.13;;;;;;;16.98;59.70;101819.03;4930329;29;20062;-67
2022/08/02 03:26:17;;;;;;;5.43;3.10;;;;;;;16.96;59.55;101811.22;4947328;28;20514;-68
2022/08/02 03:28:43;;;;;;;5.97;2.88;;;;;;;16.93;59.82;101821.59;4948970;28;20031;-68
2022/08/02 03:31:08;;;;;;;5.20;2.83;;;;;;;16.92;59.93;101822.41;4948915;28;20027;-68
2022/08/02 03:33:35;;;;;;;4.57;2.80;;;;;;;16.94;60.21;101814.66;4951825;28;20624;-67
2022/08/02 03:36:18;;;;;;;12.07;3.38;;;;;;;16.99;59.68;101806.09;4946364;28;20543;-68
2022/08/02 03:38:44;;;;;;;5.90;3.03;;;;;;;16.94;60.35;101809.47;4948347;28;20474;-68
2022/08/02 03:41:12;;;;;;;8.07;2.90;;;;;;;16.88;60.50;101803.31;4947975;28;20090;-67
2022/08/02 03:43:39;;;;;;;5.55;2.83;;;;;;;16.87;60.75;101800.69;4962273;28;20039;-68
2022/08/02 03:46:06;;;;;;;7.75;3.38;;;;;;;16.85;61.13;101787.66;4949171;28;20405;-68
2022/08/02 03:48:33;;;;;;;9.25;3.22;;;;;;;16.84;61.20;101793.72;4948772;28;20027;-68
2022/08/02 03:50:59;;;;;;;10.10;3.33;;;;;;;16.83;61.41;101793.69;4946345;29;20054;-68
2022/08/02 03:53:25;;;;;;;5.88;2.65;;;;;;;16.78;61.38;101792.72;4949353;28;20462;-67
2022/08/02 03:55:52;;;;;;;9.10;3.08;;;;;;;16.80;61.64;101788.44;4948246;29;20118;-67
2022/08/02 03:58:22;;;;;;;6.10;3.20;;;;;;;16.81;61.79;101783.28;4944235;29;20032;-68
2022/08/02 04:00:48;;;;;;;6.50;2.88;;;;;;;16.72;61.52;101784.84;4948829;28;20114;-68
2022/08/02 04:03:14;;;;;;;5.50;2.47;;;;;;;16.73;61.69;101786.56;4948876;28;20142;-68
2022/08/02 04:05:40;;;;;;;6.00;2.60;;;;;;;16.76;61.58;101781.44;4949187;28;20032;-68
2022/08/02 04:08:06;;;;;;;8.32;3.00;;;;;;;16.76;62.04;101781.44;4947690;28;20420;-68
2022/08/02 04:11:29;;;;;;;5.03;2.67;;;;;;;16.77;62.21;101780.59;4929166;29;20036;-67
2022/08/02 04:13:19;;;;;;;7.15;3.10;;;;;;;16.77;62.17;101778.88;4957830;28;20054;-69
2022/08/02 04:15:48;;;;;;;5.82;3.03;;;;;;;16.76;61.73;101786.66;4947549;29;20113;-68
2022/08/02 04:18:16;;;;;;;5.63;2.75;;;;;;;16.75;61.89;101782.31;4950806;28;20034;-67
2022/08/02 04:20:44;;;;;;;7.07;3.05;;;;;;;16.76;61.92;101776.25;4947693;28;20062;-69
2022/08/02 04:23:13;;;;;;;6.35;3.03;;;;;;;16.77;62.16;101783.19;4950212;28;20027;-68
2022/08/02 04:25:40;;;;;;;6.47;3.15;;;;;;;16.78;62.23;101787.53;4949101;28;20062;-67
2022/08/02 04:28:06;;;;;;;7.57;3.10;;;;;;;16.67;62.56;101778.66;4949966;28;20035;-67
2022/08/02 04:30:32;;;;;;;7.15;2.97;;;;;;;16.71;62.34;101773.56;4947954;28;20034;-69
2022/08/02 04:32:58;;;;;;;9.00;3.20;;;;;;;16.73;62.22;101787.44;4946397;28;20031;-68
2022/08/02 04:35:23;;;;;;;7.97;3.13;;;;;;;16.75;62.21;101785.78;4947927;28;20122;-68
2022/08/02 04:37:50;;;;;;;6.05;3.20;;;;;;;16.74;62.69;101794.38;4948575;29;20517;-68
2022/08/02 04:40:15;;;;;;;6.03;3.30;;;;;;;16.73;62.57;101797.84;4946749;28;20035;-67
2022/08/02 04:42:41;;;;;;;6.80;3.10;;;;;;;16.79;62.55;101794.47;4951330;28;20058;-68
2022/08/02 04:45:08;;;;;;;8.38;2.95;;;;;;;16.75;62.65;101790.09;4949891;28;20061;-67
2022/08/02 04:47:33;;;;;;;7.30;3.15;;;;;;;16.75;63.07;101788.38;4947418;28;20149;-67
2022/08/02 04:49:59;;;;;;;6.85;3.30;;;;;;;16.74;63.08;101781.41;4947063;28;20474;-68
2022/08/02 04:52:24;;;;;;;7.60;3.20;;;;;;;16.78;62.98;101780.63;4943784;28;20042;-68
2022/08/02 04:54:50;;;;;;;6.65;3.10;;;;;;;16.79;62.97;101778.91;4949783;28;20031;-68
2022/08/02 05:00:00;;;;;;;8.40;3.22;;;;;;;16.72;63.48;101777.03;4950116;29;20058;-68
2022/08/02 05:02:26;;;;;;;8.10;3.65;;;;;;;16.73;64.40;101776.19;4950050;28;20035;-68
2022/08/02 05:04:51;;;;;;;7.03;3.50;;;;;;;16.75;63.98;101772.78;4949822;28;20035;-67
2022/08/02 05:07:17;;;;;;;7.07;3.67;;;;;;;16.78;64.07;101774.56;4950685;28;20160;-66
2022/08/02 05:09:42;;;;;;;10.07;4.00;;;;;;;16.80;64.18;101775.44;4950245;28;20027;-67
2022/08/02 05:12:08;;;;;;;6.47;3.65;;;;;;;16.79;64.41;101776.28;4949648;28;20469;-66
2022/08/02 05:14:34;;;;;;;13.02;3.90;;;;;;;16.80;64.14;101773.72;4948837;28;20039;-66
2022/08/02 05:16:59;;;;;;;11.57;3.90;;;;;;;16.78;64.29;101775.41;4951076;28;20062;-67
2022/08/02 05:19:25;;;;;;;8.85;3.88;;;;;;;16.79;64.49;101771.09;4951753;28;20110;-67
2022/08/02 05:21:50;;;;;;;9.88;4.30;;;;;;;16.78;64.63;101770.22;4947710;28;20035;-68
2022/08/02 05:24:16;;;;;;;8.95;4.35;;;;;;;16.82;64.81;101774.63;4947574;28;20067;-67
2022/08/02 05:26:41;;;;;;;11.82;4.15;;;;;;;16.88;64.84;101763.47;4950512;28;20110;-67
2022/08/02 05:29:06;;;;;;;7.55;4.15;;;;;;;16.83;65.26;101759.94;4950331;28;20027;-68
2022/08/02 05:31:32;;;;;;;9.40;4.32;;;;;;;16.95;65.32;101765.31;4946584;28;20118;-68
2022/08/02 05:33:57;;;;;;;11.50;4.22;;;;;;;16.94;65.32;101752.31;4940592;28;20825;-68
2022/08/02 05:36:22;;;;;;;11.80;4.38;;;;;;;16.98;65.26;101749.75;4948795;28;20047;-68
2022/08/02 05:38:49;;;;;;;8.20;4.38;;;;;;;17.09;65.40;101756.00;4950376;28;20040;-67
2022/08/02 05:41:19;;;;;;;8.75;4.15;;;;;;;17.11;65.66;101759.53;4951309;28;20114;-68
2022/08/02 05:43:44;;;;;;;;;;;;;;;17.31;64.67;101761.53;4951242;28;20073;-69
2022/08/02 05:46:10;;;;;;;10.00;5.47;;;;;;;17.21;66.14;101757.91;4950909;29;19966;-68
2022/08/02 05:48:35;;;;;;;10.52;5.07;;;;;;;17.25;66.37;101751.94;4948391;28;20038;-67
2022/08/02 05:51:09;;;;;;;7.43;4.82;;;;;;;17.30;66.67;101762.41;4945880;28;20157;-67
2022/08/02 05:53:40;;;;;;;10.10;4.88;;;;;;;17.33;66.70;101767.63;4947091;28;20026;-68
2022/08/02 05:56:20;;;;;;;9.70;5.05;;;;;;;17.39;66.62;101779.00;4944311;28;20081;-68
2022/08/02 05:59:10;;;;;;;8.23;5.30;;;;;;;17.47;67.21;101778.22;4948032;29;20035;-68
2022/08/02 06:01:39;;;;;;;10.35;5.45;;;;;;;17.53;67.58;101778.31;4945306;28;20037;-68
2022/08/02 06:04:14;;;;;;;10.57;5.10;;;;;;;17.65;67.43;101784.59;4943387;29;20082;-67
2022/08/02 06:06:43;;;;;;;11.57;6.00;;;;;;;17.72;68.19;101784.69;4940902;28;20027;-68
2022/08/02 06:09:14;;;;;;;11.75;6.50;;;;;;;17.75;68.95;101780.38;4936991;28;20031;-68
2022/08/02 06:11:45;;;;;;;13.85;6.32;;;;;;;17.79;68.53;101781.31;4945802;29;20046;-68
2022/08/02 06:14:11;;;;;;;11.02;6.40;;;;;;;17.79;69.08;101776.97;4946623;28;20058;-68
2022/08/02 06:16:37;;;;;;;13.30;6.32;;;;;;;17.80;69.08;101785.66;4947336;28;20030;-69
2022/08/02 06:19:04;;;;;;;11.80;6.85;;;;;;;17.84;69.93;101784.84;4948466;28;20027;-68
2022/08/02 06:21:30;;;;;;;12.50;7.00;;;;;;;17.83;69.76;101781.34;4948752;28;20122;-67
2022/08/02 06:24:00;;;;;;;10.45;6.93;;;;;;;17.91;71.12;101784.06;4946611;28;20104;-68
2022/08/02 06:26:26;;;;;;;13.10;6.63;;;;;;;18.01;70.60;101785.03;4946308;28;20035;-69
2022/08/02 06:28:54;;;;;;;10.68;6.80;;;;;;;18.07;71.11;101772.97;4949268;28;20038;-68
2022/08/02 06:31:19;;;;;;;10.32;7.18;;;;;;;18.13;70.86;101779.97;4943730;28;20027;-68
2022/08/02 06:33:45;;;;;;;12.60;7.05;;;;;;;18.22;70.97;101773.16;4947745;28;20384;-68
2022/08/02 06:36:30;;;;;;;14.38;7.07;;;;;;;18.32;71.06;101766.34;4939166;28;20047;-69
2022/08/02 06:39:14;;;;;;;12.68;7.13;;;;;;;18.41;71.43;101765.53;4945914;28;20051;-68
2022/08/02 06:41:41;;;;;;;10.40;6.70;;;;;;;18.56;71.55;101754.38;4943149;28;20042;-68
2022/08/02 06:44:07;;;;;;;15.48;7.25;;;;;;;18.65;70.95;101762.31;5025845;28;20042;-68
2022/08/02 06:46:34;;;;;;;10.80;6.72;;;;;;;18.81;71.55;101758.13;4943686;28;20019;-68
2022/08/02 06:49:00;;;;;;;11.10;7.03;;;;;;;18.88;72.37;101765.16;4943180;28;20735;-69
2022/08/02 06:51:26;;;;;;;13.65;7.20;;;;;;;18.98;71.65;101756.53;4941456;29;20016;-70
2022/08/02 06:53:52;;;;;;;10.02;6.90;;;;;;;19.09;71.60;101760.09;4944255;29;20071;-69
2022/08/02 06:56:18;;;;;;;13.05;7.38;;;;;;;19.27;72.24;101764.56;4944797;28;20430;-70
2022/08/02 06:58:43;;;;;;;11.43;7.40;;;;;;;19.39;72.56;101763.75;4945796;28;20517;-70
2022/08/02 07:01:10;;;;;;;14.80;7.32;;;;;;;19.47;72.39;101759.44;4947138;28;20088;-69
2022/08/02 07:03:37;;;;;;;10.57;7.25;;;;;;;19.63;72.49;101756.09;4952136;28;20111;-69
2022/08/02 07:06:04;;;;;;;12.93;7.43;;;;;;;19.77;71.89;101753.56;4947482;28;20100;-69
2022/08/02 07:08:32;;;;;;;13.10;7.20;;;;;;;19.80;71.12;101753.59;4942110;29;20054;-68
2022/08/02 07:11:00;;;;;;;13.50;7.53;;;;;;;20.01;71.33;101764.09;4947476;28;20059;-69
2022/08/02 07:13:26;;;;;;;12.88;8.18;;;;;;;20.15;71.17;101758.94;4943783;29;20401;-69
2022/08/02 07:15:52;;;;;;;15.60;8.05;;;;;;;20.23;70.92;101757.19;4945370;28;20035;-70
2022/08/02 07:18:17;;;;;;;13.07;8.25;;;;;;;20.32;71.37;101764.16;4943973;28;20035;-69
2022/08/02 07:20:44;;;;;;;15.65;9.07;;;;;;;20.38;72.08;101752.88;4941812;28;20389;-69
2022/08/02 07:23:09;;;;;;;14.90;8.90;;;;;;;20.43;71.60;101753.75;4938906;28;20053;-69
2022/08/02 07:25:35;;;;;;;14.80;8.80;;;;;;;20.55;71.72;101754.66;4954595;28;20029;-69
2022/08/02 07:28:01;;;;;;;11.57;8.60;;;;;;;20.58;71.46;101744.25;4947042;28;20036;-68
2022/08/02 07:30:26;;;;;;;12.10;8.38;;;;;;;20.50;71.61;101745.09;4944817;29;20035;-68
2022/08/02 07:32:52;;;;;;;12.30;7.78;;;;;;;20.60;71.77;101749.47;4944196;28;20050;-68
2022/08/02 07:35:17;;;;;;;15.68;8.05;;;;;;;20.61;72.14;101748.59;4930964;28;20030;-70
2022/08/02 07:37:45;;;;;;;10.40;7.78;;;;;;;20.66;72.71;101740.75;4944896;28;20035;-69
2022/08/02 07:40:11;;;;;;;13.77;8.07;;;;;;;20.78;71.73;101746.84;4944160;28;20027;-69
2022/08/02 07:42:36;;;;;;;11.77;7.90;;;;;;;20.81;71.62;101739.03;4949533;28;20142;-68
2022/08/02 07:45:02;;;;;;;11.50;7.40;;;;;;;20.95;71.97;101744.22;4952629;28;20126;-68
2022/08/02 07:47:27;;;;;;;10.30;7.38;;;;;;;21.02;71.66;101745.97;4945087;28;20363;-70
2022/08/02 07:49:53;;;;;;;12.02;7.00;;;;;;;21.13;70.87;101746.81;4945470;28;20122;-68
2022/08/02 07:52:19;;;;;;;11.10;6.38;;;;;;;21.30;71.57;101753.81;5032688;28;20462;-69
2022/08/02 07:54:45;;;;;;;14.27;5.90;;;;;;;21.40;69.47;101761.63;4950247;28;20477;-69
2022/08/02 07:57:11;;;;;;;7.82;6.07;;;;;;;21.42;69.91;101754.66;4947006;28;20039;-68
2022/08/02 07:59:36;;;;;;;9.73;5.95;;;;;;;21.51;69.38;101752.88;4943277;29;20529;-68
2022/08/02 08:02:02;;;;;;;9.80;5.47;;;;;;;21.53;69.12;101749.38;4949740;28;20077;-69
2022/08/02 08:04:27;;;;;;;9.90;5.13;;;;;;;21.67;69.44;101744.09;4933005;28;20031;-69
2022/08/02 08:06:52;;;;;;;5.57;4.40;;;;;;;21.74;68.74;101740.59;4949710;28;20046;-70
2022/08/02 08:09:19;;;;;;;9.73;4.00;;;;;;;21.85;69.75;101746.66;4959836;28;20038;-70
2022/08/02 08:11:44;;;;;;;6.07;3.55;;;;;;;21.93;68.97;101742.22;4947541;28;20129;-69
2022/08/02 08:14:10;;;;;;;4.10;3.20;;;;;;;21.98;67.76;101736.13;4945214;28;20600;-69
2022/08/02 08:16:36;;;;;;;5.10;3.05;;;;;;;22.04;68.15;101741.31;4949460;28;20039;-69
2022/08/02 08:19:02;;;;;;;5.32;3.42;;;;;;;22.05;67.13;101724.72;4947504;28;20047;-69
2022/08/02 08:21:28;;;;;;;4.55;3.05;;;;;;;22.08;67.30;101729.94;4950135;28;20043;-69
2022/08/02 08:23:54;;;;;;;3.58;2.70;;;;;;;22.12;68.44;101735.19;4948076;28;20060;-70
2022/08/02 08:26:20;;;;;;;6.55;2.97;;;;;;;22.11;67.57;101730.81;4947844;29;20031;-70
2022/08/02 08:28:45;;;;;;;5.68;2.72;;;;;;;22.24;67.98;101736.84;4948657;28;20042;-69
2022/08/02 08:31:14;;;;;;;4.00;2.67;;;;;;;22.35;67.51;101721.06;4953427;28;20035;-68
2022/08/02 08:33:39;;;;;;;4.28;2.05;;;;;;;22.46;67.16;101724.50;4952550;28;20042;-69
2022/08/02 08:36:05;;;;;;;4.63;2.17;;;;;;;22.58;65.62;101729.63;4951558;28;20027;-69
2022/08/02 08:38:30;;;;;;;3.60;1.90;;;;;;;22.53;65.91;101730.56;4950134;28;20031;-69
2022/08/02 08:40:56;;;;;;;1.75;1.63;;;;;;;22.64;64.58;101729.59;4951371;28;20034;-69
2022/08/02 08:43:21;;;;;;;2.60;1.73;;;;;;;22.65;63.73;101723.47;4957116;28;20040;-69
2022/08/02 08:45:48;;;;;;;4.13;1.75;;;;;;;22.76;64.15;101739.09;4951162;28;20039;-70
2022/08/02 08:48:16;;;;;;;3.88;1.70;;;;;;;22.87;62.99;101736.41;4951495;29;20062;-69
2022/08/02 08:50:48;;;;;;;2.58;1.48;;;;;;;22.87;62.05;101739.03;4953726;28;20027;-69
2022/08/02 08:53:14;;;;;;;3.95;1.48;;;;;;;22.96;61.57;101742.44;4951407;29;20123;-70
2022/08/02 08:55:40;;;;;;;4.00;1.70;;;;;;;23.03;59.41;101735.38;4954068;28;20110;-70
2022/08/02 08:58:05;;;;;;;2.03;1.38;;;;;;;23.00;59.66;101738.91;4951633;28;20114;-70
2022/08/02 09:00:34;;;;;;;2.63;1.65;;;;;;;22.99;59.90;101729.31;4953093;28;20106;-70
2022/08/02 09:03:02;;;;;;;2.55;1.50;;;;;;;23.05;58.51;101743.22;4946443;28;20027;-69
2022/08/02 09:05:27;;;;;;;3.78;1.50;;;;;;;22.98;59.48;101737.19;4952273;29;20031;-69
2022/08/02 09:07:53;;;;;;;5.15;1.77;;;;;;;23.06;59.79;101743.25;4948549;28;20035;-69
2022/08/02 09:10:34;;;;;;;2.20;1.50;;;;;;;23.12;60.15;101735.31;4945507;28;20064;-70
2022/08/02 09:13:23;;;;;;;1.92;1.63;;;;;;;23.20;59.09;101741.34;4943849;28;20027;-70
2022/08/02 09:15:55;;;;;;;2.38;1.40;;;;;;;23.21;57.63;101736.97;4940283;28;20038;-75
2022/08/02 09:18:28;;;;;;;2.30;1.27;;;;;;;23.28;57.35;101736.88;4950394;28;20038;-73
2022/08/02 09:20:58;;;;;;;3.28;1.42;;;;;;;23.37;56.66;101727.19;4948445;29;20043;-74
2022/08/02 09:23:25;;;;;;;2.58;1.40;;;;;;;23.43;54.49;101738.47;4946731;29;20157;-74
2022/08/02 09:25:56;;;;;;;4.45;1.48;;;;;;;23.46;55.31;101725.28;4947555;28;20046;-72
2022/08/02 09:28:27;;;;;;;4.55;1.45;;;;;;;23.57;54.86;101732.19;4963615;28;20054;-74
2022/08/02 09:31:09;;;;;;;3.25;1.52;;;;;;;23.62;55.49;101723.41;4947470;28;20066;-75
2022/08/02 09:33:37;;;;;;;4.03;1.63;;;;;;;23.71;54.90;101727.66;4931609;28;20382;-72
2022/08/02 09:36:05;;;;;;;3.10;1.47;;;;;;;23.74;54.27;101735.50;4941457;28;20485;-74
2022/08/02 09:38:31;;;;;;;3.08;1.20;;;;;;;23.79;53.89;101726.69;4943338;28;20031;-72
2022/08/02 09:40:58;;;;;;;5.18;1.85;;;;;;;23.84;53.31;101718.72;4947754;28;20046;-73
2022/08/02 09:43:37;;;;;;;2.70;1.40;;;;;;;23.90;53.81;101729.16;4954794;28;20069;-74
2022/08/02 09:46:12;;;;;;;;;;;;;;;23.92;54.22;101727.38;4947736;28;20038;-72
2022/08/02 09:48:47;;;;;;;2.35;1.17;;;;;;;23.98;50.17;101737.81;4946669;29;19918;-72
2022/08/02 09:51:17;;;;;;;1.58;1.00;;;;;;;24.02;49.77;101739.50;4947307;28;20023;-72
2022/08/02 09:53:42;;;;;;;2.10;1.17;;;;;;;24.11;48.38;101737.66;4943749;28;20027;-73
2022/08/02 09:56:08;;;;;;;3.17;1.20;;;;;;;24.09;48.55;101729.78;4942533;28;20045;-73
2022/08/02 09:58:38;;;;;;;2.70;1.15;;;;;;;24.16;48.23;101738.44;4949073;28;20394;-70
2022/08/02 10:01:03;;;;;;;1.05;0.90;;;;;;;24.18;48.09;101734.03;4945670;29;20557;-73
2022/08/02 10:03:29;;;;;;;2.53;1.10;;;;;;;24.15;48.86;101742.84;4951600;28;20059;-72
2022/08/02 10:05:57;;;;;;;2.53;1.00;;;;;;;24.29;48.66;101732.13;4948099;28;20073;-71
2022/08/02 10:08:23;;;;;;;2.30;1.00;;;;;;;24.30;47.55;101733.84;4947635;28;20030;-68
2022/08/02 10:10:59;;;;;;;2.92;1.13;;;;;;;24.30;47.74;101734.72;4946766;28;20114;-68
2022/08/02 10:13:29;;;;;;;3.80;1.00;;;;;;;24.37;47.82;101735.53;4945093;28;20043;-67
2022/08/02 10:15:55;;;;;;;3.95;1.10;;;;;;;24.41;47.07;101731.97;4944527;28;20093;-68
2022/08/02 10:18:22;;;;;;;1.20;0.90;;;;;;;24.44;46.59;101721.38;4947117;28;20027;-69
2022/08/02 10:20:49;;;;;;;2.20;1.00;;;;;;;24.52;46.92;101718.66;4919233;28;20043;-69
2022/08/02 10:23:15;;;;;;;2.45;1.00;;;;;;;24.66;46.89;101721.06;4947518;29;20039;-69
2022/08/02 10:25:44;;;;;;;2.28;1.05;;;;;;;24.71;46.69;101714.81;4948607;28;20065;-69
2022/08/02 10:28:14;;;;;;;2.50;1.00;;;;;;;24.77;47.06;101712.09;4942551;28;20031;-69
2022/08/02 10:30:42;;;;;;;2.05;0.90;;;;;;;24.77;46.18;101711.22;4944945;28;20118;-68
2022/08/02 10:33:09;;;;;;;1.75;0.80;;;;;;;24.83;46.96;101719.88;4946891;28;20114;-68
2022/08/02 10:35:37;;;;;;;2.50;1.10;;;;;;;24.87;45.60;101718.94;4943987;28;20067;-72
2022/08/02 10:38:06;;;;;;;2.20;1.00;;;;;;;24.85;45.78;101718.06;4946712;29;20757;-69
2022/08/02 10:40:49;;;;;;;1.25;0.98;;;;;;;24.87;47.58;101715.41;4941582;28;20777;-67
2022/08/02 10:43:47;;;;;;;1.13;0.90;;;;;;;24.93;47.40;101723.19;4942436;29;20067;-68
2022/08/02 10:46:42;;;;;;;1.50;1.00;;;;;;;24.91;46.34;101717.09;4967984;28;20145;-68
2022/08/02 10:49:07;;;;;;;1.70;0.90;;;;;;;24.92;45.64;101724.09;4941932;29;20747;-68
2022/08/02 10:51:51;;;;;;;2.72;1.00;;;;;;;24.96;45.04;101719.66;4941695;28;20058;-69
2022/08/02 10:54:21;;;;;;;1.75;0.80;;;;;;;24.99;45.17;101717.81;4948277;28;20031;-69
2022/08/02 10:56:48;;;;;;;1.85;0.80;;;;;;;24.99;44.79;101715.19;4940647;29;20707;-68
2022/08/02 10:59:27;;;;;;;0.80;0.70;;;;;;;25.04;44.16;101723.00;4944701;29;20035;-68
2022/08/02 11:02:01;;;;;;;4.45;0.90;;;;;;;25.08;44.71;101720.31;4946169;28;20035;-68
2022/08/02 11:04:49;;;;;;;3.15;0.88;;;;;;;25.19;45.15;101711.38;4957986;28;20028;-69
2022/08/02 11:07:29;;;;;;;3.63;0.70;;;;;;;25.21;44.29;101709.56;4954644;28;20482;-68
2022/08/02 11:09:55;;;;;;;2.90;0.98;;;;;;;25.29;44.09;101719.03;4947019;28;20046;-67
2022/08/02 11:12:21;;;;;;;1.48;0.80;;;;;;;25.32;42.13;101719.00;4946609;28;20039;-68
2022/08/02 11:15:04;;;;;;;2.30;0.80;;;;;;;25.36;44.71;101717.16;4941812;28;20122;-67
2022/08/02 11:17:53;;;;;;;4.55;1.15;;;;;;;25.44;43.71;101704.72;4945510;28;20467;-67
2022/08/02 11:20:21;;;;;;;5.15;0.82;;;;;;;25.63;43.99;101710.47;4947230;28;20031;-67
2022/08/02 11:22:48;;;;;;;2.53;0.95;;;;;;;25.64;40.89;101701.66;4944079;28;20046;-68
2022/08/02 11:25:29;;;;;;;2.33;0.90;;;;;;;25.63;42.29;101702.56;4945039;29;20043;-67
2022/08/02 11:27:57;;;;;;;2.63;0.88;;;;;;;25.63;42.06;101703.44;4947016;28;20042;-68
2022/08/02 11:30:23;;;;;;;5.30;0.80;;;;;;;25.66;41.83;101707.75;4949464;28;20106;-68
2022/08/02 11:32:49;;;;;;;2.10;1.10;;;;;;;25.71;40.57;101710.28;4948258;28;20063;-66
2022/08/02 11:35:15;;;;;;;1.98;0.85;;;;;;;25.68;41.07;101704.22;4946396;28;20036;-68